No.3tokuyomaru — JD3132 — position and weather

sailwx.info

Track history (hours):
 
Tides and Currents Weather Stations Pressure Air Temp Water Temp Dewpoint Dewpoint Depression Visibility Wind Speed Wind Dir Waves Ship Positions

No.3tokuyomaru

Last reported at 2014-Sep-17 06:18 UTC. Time now 2014-Sep-18 23:50 UTC.
Position N 35°00' E 139°46'.

Length 67 m; draft 4.6 m.

Type: Tanker. MMSI: 431002151.

Date/timePositionNaut miles runAvg speedWind from/ knotsBaromVisibWave heightAir tempDewpointWater temp
2014-Sep-17 06:18N 35°00' E 139°46'2 0.0
2014-Sep-15 13:31N 35°01' E 139°48'20 6.5
2014-Sep-15 10:27N 35°01' E 140°12'3411.8
2014-Sep-15 07:31N 35°25' E 140°42'31 9.9
2014-Sep-15 04:22N 35°57' E 140°43'3 0.5
2014-Sep-14 23:31N 35°55' E 140°41'5 5.4
2014-Sep-14 22:33N 35°59' E 140°45'5 4.7
2014-Sep-14 21:31N 35°54' E 140°47'1112.0
2014-Sep-14 20:33N 35°45' E 140°55'1110.7
2014-Sep-14 19:33N 35°35' E 140°51'1212.5
2014-Sep-14 18:33N 35°25' E 140°41'1312.6
2014-Sep-14 17:33N 35°15' E 140°32'1313.0
2014-Sep-14 16:32N 35°06' E 140°20'1313.2
2014-Sep-14 15:33N 34°58' E 140°08'2613.1
2014-Sep-14 13:33N 34°51' E 139°37'23210.1
2014-Sep-13 14:30N 34°10' E 134°60'1412.2
2014-Sep-13 13:20N 34°24' E 135°00'912.0
2014-Sep-13 12:33N 34°33' E 135°02'  
Track history (hours):
 
Tides and Currents Weather Stations Pressure Air Temp Water Temp Dewpoint Dewpoint Depression Visibility Wind Speed Wind Dir Waves Ship Positions

No.3tokuyomaru

Last reported at 2014-Sep-17 06:18 UTC. Time now 2014-Sep-18 23:50 UTC.
Position N 35°00' E 139°46'.

Length 67 m; draft 4.6 m.

Type: Tanker. MMSI: 431002151.

Date/timePositionNaut miles runAvg speedWind from/ knotsBaromVisibWave heightAir tempDewpointWater temp
2014-Sep-17 06:18N 35°00' E 139°46'2 0.0
2014-Sep-15 13:31N 35°01' E 139°48'20 6.5
2014-Sep-15 10:27N 35°01' E 140°12'3411.8
2014-Sep-15 07:31N 35°25' E 140°42'31 9.9
2014-Sep-15 04:22N 35°57' E 140°43'3 0.5
2014-Sep-14 23:31N 35°55' E 140°41'5 5.4
2014-Sep-14 22:33N 35°59' E 140°45'5 4.7
2014-Sep-14 21:31N 35°54' E 140°47'1112.0
2014-Sep-14 20:33N 35°45' E 140°55'1110.7
2014-Sep-14 19:33N 35°35' E 140°51'1212.5
2014-Sep-14 18:33N 35°25' E 140°41'1312.6
2014-Sep-14 17:33N 35°15' E 140°32'1313.0
2014-Sep-14 16:32N 35°06' E 140°20'1313.2
2014-Sep-14 15:33N 34°58' E 140°08'2613.1
2014-Sep-14 13:33N 34°51' E 139°37'23210.1
2014-Sep-13 14:30N 34°10' E 134°60'1412.2
2014-Sep-13 13:20N 34°24' E 135°00'912.0
2014-Sep-13 12:33N 34°33' E 135°02'  

Dump ship's entire track history